sensor_id;sensor_type;location;lat;lon;timestamp;pressure;altitude;pressure_sealevel;temperature
45034;BMP280;30771;47.988;-4.186;2023-03-24T07:02:12;97758.03;;;10.46
45034;BMP280;30771;47.988;-4.186;2023-03-24T07:04:37;97739.09;;;10.44
45034;BMP280;30771;47.988;-4.186;2023-03-24T07:07:02;97728.56;;;10.54
45034;BMP280;30771;47.988;-4.186;2023-03-24T07:09:28;97720.88;;;10.68
45034;BMP280;30771;47.988;-4.186;2023-03-24T07:11:53;97708.81;;;10.67
45034;BMP280;30771;47.988;-4.186;2023-03-24T07:14:18;97720.63;;;10.79
45034;BMP280;30771;47.988;-4.186;2023-03-24T07:16:44;97708.78;;;10.82
45034;BMP280;30771;47.988;-4.186;2023-03-24T07:19:09;97687.41;;;10.98
45034;BMP280;30771;47.988;-4.186;2023-03-24T07:21:34;97672.38;;;11.04
45034;BMP280;30771;47.988;-4.186;2023-03-24T07:23:59;97660.78;;;11.05
45034;BMP280;30771;47.988;-4.186;2023-03-24T07:26:25;97659.44;;;11.12
45034;BMP280;30771;47.988;-4.186;2023-03-24T07:28:50;97654.69;;;11.09
45034;BMP280;30771;47.988;-4.186;2023-03-24T07:31:15;97652.81;;;11.15
45034;BMP280;30771;47.988;-4.186;2023-03-24T07:33:40;97638.81;;;11.25
45034;BMP280;30771;47.988;-4.186;2023-03-24T07:36:06;97617.69;;;11.35
45034;BMP280;30771;47.988;-4.186;2023-03-24T07:38:32;97614.97;;;11.50
45034;BMP280;30771;47.988;-4.186;2023-03-24T07:40:57;97618.84;;;11.57
45034;BMP280;30771;47.988;-4.186;2023-03-24T07:43:23;97616.91;;;11.68
45034;BMP280;30771;47.988;-4.186;2023-03-24T07:45:48;97604.78;;;11.72
45034;BMP280;30771;47.988;-4.186;2023-03-24T07:48:13;97600.94;;;11.83
45034;BMP280;30771;47.988;-4.186;2023-03-24T07:50:38;97612.94;;;11.99
45034;BMP280;30771;47.988;-4.186;2023-03-24T07:53:04;97620.53;;;12.05
45034;BMP280;30771;47.988;-4.186;2023-03-24T07:55:29;97628.09;;;12.12
45034;BMP280;30771;47.988;-4.186;2023-03-24T07:57:55;97637.91;;;12.35
45034;BMP280;30771;47.988;-4.186;2023-03-24T08:00:20;97663.34;;;12.45
45034;BMP280;30771;47.988;-4.186;2023-03-24T08:02:48;97698.69;;;12.49
45034;BMP280;30771;47.988;-4.186;2023-03-24T08:05:14;97723.25;;;12.44
45034;BMP280;30771;47.988;-4.186;2023-03-24T08:07:43;97742.50;;;12.45
45034;BMP280;30771;47.988;-4.186;2023-03-24T08:10:12;97769.97;;;12.44
45034;BMP280;30771;47.988;-4.186;2023-03-24T08:12:38;97789.22;;;12.44
45034;BMP280;30771;47.988;-4.186;2023-03-24T08:15:05;97796.91;;;12.41
45034;BMP280;30771;47.988;-4.186;2023-03-24T08:17:30;97819.25;;;12.53
45034;BMP280;30771;47.988;-4.186;2023-03-24T08:19:56;97833.34;;;12.67
45034;BMP280;30771;47.988;-4.186;2023-03-24T08:22:21;97859.38;;;12.79
45034;BMP280;30771;47.988;-4.186;2023-03-24T08:24:46;97902.63;;;12.88
45034;BMP280;30771;47.988;-4.186;2023-03-24T08:27:12;97910.34;;;13.08
45034;BMP280;30771;47.988;-4.186;2023-03-24T08:29:37;97948.56;;;13.15
45034;BMP280;30771;47.988;-4.186;2023-03-24T08:32:03;97997.56;;;13.32
45034;BMP280;30771;47.988;-4.186;2023-03-24T08:34:28;98021.81;;;13.39
45034;BMP280;30771;47.988;-4.186;2023-03-24T08:36:53;98037.09;;;13.47
45034;BMP280;30771;47.988;-4.186;2023-03-24T08:39:19;98070.84;;;13.50
45034;BMP280;30771;47.988;-4.186;2023-03-24T08:41:44;98098.03;;;13.55
45034;BMP280;30771;47.988;-4.186;2023-03-24T08:44:10;98114.88;;;13.64
45034;BMP280;30771;47.988;-4.186;2023-03-24T08:46:35;98140.28;;;13.65
45034;BMP280;30771;47.988;-4.186;2023-03-24T08:49:01;98157.13;;;13.69
45034;BMP280;30771;47.988;-4.186;2023-03-24T08:51:27;98153.34;;;13.80
45034;BMP280;30771;47.988;-4.186;2023-03-24T08:53:52;98160.38;;;13.95
45034;BMP280;30771;47.988;-4.186;2023-03-24T08:56:19;98192.66;;;13.92
45034;BMP280;30771;47.988;-4.186;2023-03-24T08:58:44;98191.69;;;13.83
45034;BMP280;30771;47.988;-4.186;2023-03-24T09:01:09;98205.13;;;13.86
45034;BMP280;30771;47.988;-4.186;2023-03-24T09:03:35;98193.69;;;13.96
45034;BMP280;30771;47.988;-4.186;2023-03-24T09:06:00;98217.09;;;14.12
45034;BMP280;30771;47.988;-4.186;2023-03-24T09:08:26;98255.66;;;14.18
45034;BMP280;30771;47.988;-4.186;2023-03-24T09:10:51;98259.91;;;14.19
45034;BMP280;30771;47.988;-4.186;2023-03-24T09:13:17;98284.78;;;14.18
45034;BMP280;30771;47.988;-4.186;2023-03-24T09:15:51;98356.50;;;14.17
45034;BMP280;30771;47.988;-4.186;2023-03-24T09:18:18;98402.06;;;14.04
45034;BMP280;30771;47.988;-4.186;2023-03-24T09:20:44;98404.69;;;14.14
45034;BMP280;30771;47.988;-4.186;2023-03-24T09:23:10;98415.19;;;14.24
45034;BMP280;30771;47.988;-4.186;2023-03-24T09:25:36;98442.22;;;14.21
45034;BMP280;30771;47.988;-4.186;2023-03-24T09:28:01;98438.63;;;14.40
45034;BMP280;30771;47.988;-4.186;2023-03-24T09:30:27;98441.16;;;14.61
45034;BMP280;30771;47.988;-4.186;2023-03-24T09:32:52;98453.25;;;14.72
45034;BMP280;30771;47.988;-4.186;2023-03-24T09:35:17;98509.09;;;14.75
45034;BMP280;30771;47.988;-4.186;2023-03-24T09:37:43;98544.38;;;14.71
45034;BMP280;30771;47.988;-4.186;2023-03-24T09:40:21;98557.69;;;14.61
45034;BMP280;30771;47.988;-4.186;2023-03-24T09:42:53;98554.56;;;14.49
45034;BMP280;30771;47.988;-4.186;2023-03-24T09:45:21;98574.50;;;14.36
45034;BMP280;30771;47.988;-4.186;2023-03-24T09:48:10;98554.44;;;14.25
45034;BMP280;30771;47.988;-4.186;2023-03-24T09:50:52;98566.31;;;14.27
45034;BMP280;30771;47.988;-4.186;2023-03-24T09:56:17;98625.81;;;14.45
45034;BMP280;30771;47.988;-4.186;2023-03-24T09:58:47;98643.84;;;14.28
45034;BMP280;30771;47.988;-4.186;2023-03-24T10:01:14;98636.22;;;14.16
45034;BMP280;30771;47.988;-4.186;2023-03-24T10:03:44;98634.38;;;14.17
45034;BMP280;30771;47.988;-4.186;2023-03-24T10:06:18;98633.06;;;14.14
45034;BMP280;30771;47.988;-4.186;2023-03-24T10:08:49;98621.91;;;14.27
45034;BMP280;30771;47.988;-4.186;2023-03-24T10:11:21;98659.72;;;14.43
45034;BMP280;30771;47.988;-4.186;2023-03-24T10:17:08;98695.69;;;14.59
45034;BMP280;30771;47.988;-4.186;2023-03-24T10:19:49;98708.09;;;14.69
45034;BMP280;30771;47.988;-4.186;2023-03-24T10:24:53;98715.09;;;15.03
45034;BMP280;30771;47.988;-4.186;2023-03-24T10:30:31;98795.16;;;14.95
45034;BMP280;30771;47.988;-4.186;2023-03-24T10:32:57;98811.38;;;14.69
45034;BMP280;30771;47.988;-4.186;2023-03-24T10:35:56;98773.03;;;14.56
45034;BMP280;30771;47.988;-4.186;2023-03-24T10:38:22;98773.00;;;14.71
45034;BMP280;30771;47.988;-4.186;2023-03-24T10:40:48;98747.72;;;14.89
45034;BMP280;30771;47.988;-4.186;2023-03-24T10:43:16;98756.16;;;15.06
45034;BMP280;30771;47.988;-4.186;2023-03-24T10:45:46;98787.72;;;15.02
45034;BMP280;30771;47.988;-4.186;2023-03-24T10:48:14;98767.84;;;15.00
45034;BMP280;30771;47.988;-4.186;2023-03-24T10:50:57;98800.97;;;15.07
45034;BMP280;30771;47.988;-4.186;2023-03-24T10:53:23;98811.06;;;15.00
45034;BMP280;30771;47.988;-4.186;2023-03-24T10:55:48;98798.81;;;15.09
45034;BMP280;30771;47.988;-4.186;2023-03-24T10:58:29;98763.75;;;15.27
45034;BMP280;30771;47.988;-4.186;2023-03-24T11:01:00;98749.22;;;15.64
45034;BMP280;30771;47.988;-4.186;2023-03-24T11:03:30;98756.34;;;15.97
45034;BMP280;30771;47.988;-4.186;2023-03-24T11:05:58;98782.31;;;16.05
45034;BMP280;30771;47.988;-4.186;2023-03-24T11:08:38;98815.03;;;15.95
45034;BMP280;30771;47.988;-4.186;2023-03-24T11:13:56;98863.91;;;15.89
45034;BMP280;30771;47.988;-4.186;2023-03-24T11:16:27;98895.81;;;15.84
45034;BMP280;30771;47.988;-4.186;2023-03-24T11:19:09;98899.25;;;15.75
45034;BMP280;30771;47.988;-4.186;2023-03-24T11:21:41;98912.53;;;15.80
45034;BMP280;30771;47.988;-4.186;2023-03-24T11:24:13;98935.38;;;15.76
45034;BMP280;30771;47.988;-4.186;2023-03-24T11:26:40;98940.41;;;15.72
45034;BMP280;30771;47.988;-4.186;2023-03-24T11:29:17;98912.25;;;15.81
45034;BMP280;30771;47.988;-4.186;2023-03-24T11:32:31;98924.44;;;15.87
45034;BMP280;30771;47.988;-4.186;2023-03-24T11:34:43;98949.47;;;15.71
45034;BMP280;30771;47.988;-4.186;2023-03-24T11:37:16;98971.53;;;15.62
45034;BMP280;30771;47.988;-4.186;2023-03-24T11:39:42;98954.03;;;15.55
45034;BMP280;30771;47.988;-4.186;2023-03-24T11:47:29;98945.72;;;15.72
45034;BMP280;30771;47.988;-4.186;2023-03-24T11:52:44;98971.13;;;15.19
45034;BMP280;30771;47.988;-4.186;2023-03-24T11:55:23;98881.53;;;14.86
45034;BMP280;30771;47.988;-4.186;2023-03-24T12:00:22;98766.06;;;14.80
45034;BMP280;30771;47.988;-4.186;2023-03-24T12:05:28;98794.94;;;14.72
45034;BMP280;30771;47.988;-4.186;2023-03-24T12:13:40;98949.78;;;13.37
45034;BMP280;30771;47.988;-4.186;2023-03-24T12:24:34;98843.63;;;11.77
45034;BMP280;30771;47.988;-4.186;2023-03-24T12:27:03;98808.91;;;11.63
45034;BMP280;30771;47.988;-4.186;2023-03-24T12:43:26;98639.00;;;12.59
45034;BMP280;30771;47.988;-4.186;2023-03-24T12:45:54;98636.44;;;12.79
45034;BMP280;30771;47.988;-4.186;2023-03-24T12:51:56;98687.81;;;13.23
45034;BMP280;30771;47.988;-4.186;2023-03-24T12:56:57;98834.84;;;13.50
45034;BMP280;30771;47.988;-4.186;2023-03-24T12:59:45;98884.91;;;13.66
45034;BMP280;30771;47.988;-4.186;2023-03-24T13:04:42;98940.47;;;13.81
45034;BMP280;30771;47.988;-4.186;2023-03-24T13:07:11;98941.28;;;13.87
45034;BMP280;30771;47.988;-4.186;2023-03-24T13:17:50;98985.56;;;14.06
45034;BMP280;30771;47.988;-4.186;2023-03-24T13:23:24;98988.03;;;14.33
45034;BMP280;30771;47.988;-4.186;2023-03-24T13:28:34;98963.19;;;14.49
45034;BMP280;30771;47.988;-4.186;2023-03-24T13:31:04;98970.06;;;14.55
45034;BMP280;30771;47.988;-4.186;2023-03-24T13:33:33;98962.13;;;14.55
45034;BMP280;30771;47.988;-4.186;2023-03-24T13:36:24;98942.25;;;14.73
45034;BMP280;30771;47.988;-4.186;2023-03-24T13:38:53;98936.41;;;14.81
45034;BMP280;30771;47.988;-4.186;2023-03-24T13:41:22;98948.34;;;14.78
45034;BMP280;30771;47.988;-4.186;2023-03-24T13:43:50;98926.63;;;14.76
45034;BMP280;30771;47.988;-4.186;2023-03-24T13:46:22;98898.03;;;14.73
45034;BMP280;30771;47.988;-4.186;2023-03-24T13:48:53;98908.91;;;14.62
45034;BMP280;30771;47.988;-4.186;2023-03-24T13:51:31;98890.88;;;14.38
45034;BMP280;30771;47.988;-4.186;2023-03-24T13:53:57;98879.44;;;14.23
45034;BMP280;30771;47.988;-4.186;2023-03-24T13:56:31;98832.06;;;13.96
45034;BMP280;30771;47.988;-4.186;2023-03-24T14:06:47;98712.94;;;13.36
45034;BMP280;30771;47.988;-4.186;2023-03-24T14:09:19;98658.78;;;13.29
45034;BMP280;30771;47.988;-4.186;2023-03-24T14:11:49;98613.28;;;13.11
45034;BMP280;30771;47.988;-4.186;2023-03-24T14:14:35;98557.78;;;12.96
45034;BMP280;30771;47.988;-4.186;2023-03-24T14:19:35;98542.38;;;12.53
45034;BMP280;30771;47.988;-4.186;2023-03-24T14:22:24;98539.41;;;12.40
45034;BMP280;30771;47.988;-4.186;2023-03-24T14:27:46;98519.34;;;12.34
45034;BMP280;30771;47.988;-4.186;2023-03-24T14:32:46;98591.31;;;12.19
45034;BMP280;30771;47.988;-4.186;2023-03-24T14:35:34;98680.63;;;12.05
45034;BMP280;30771;47.988;-4.186;2023-03-24T14:40:48;98859.25;;;11.62
45034;BMP280;30771;47.988;-4.186;2023-03-24T14:43:28;98900.66;;;11.45
45034;BMP280;30771;47.988;-4.186;2023-03-24T14:46:07;98927.28;;;11.27
45034;BMP280;30771;47.988;-4.186;2023-03-24T14:53:49;98903.56;;;10.60
45034;BMP280;30771;47.988;-4.186;2023-03-24T14:56:15;98803.41;;;10.34
45034;BMP280;30771;47.988;-4.186;2023-03-24T14:58:43;98736.72;;;10.23
45034;BMP280;30771;47.988;-4.186;2023-03-24T15:01:09;98647.28;;;10.06
45034;BMP280;30771;47.988;-4.186;2023-03-24T15:06:22;98497.50;;;9.90
45034;BMP280;30771;47.988;-4.186;2023-03-24T15:08:53;98429.81;;;9.80
45034;BMP280;30771;47.988;-4.186;2023-03-24T15:11:24;98425.19;;;9.87
45034;BMP280;30771;47.988;-4.186;2023-03-24T15:13:52;98415.22;;;9.89
45034;BMP280;30771;47.988;-4.186;2023-03-24T15:16:22;98395.28;;;9.93
45034;BMP280;30771;47.988;-4.186;2023-03-24T15:18:53;98377.53;;;10.00
45034;BMP280;30771;47.988;-4.186;2023-03-24T15:21:46;98369.91;;;10.04
45034;BMP280;30771;47.988;-4.186;2023-03-24T15:29:30;98365.59;;;10.19
45034;BMP280;30771;47.988;-4.186;2023-03-24T15:31:55;98350.38;;;10.22
45034;BMP280;30771;47.988;-4.186;2023-03-24T15:34:27;98346.06;;;10.37
45034;BMP280;30771;47.988;-4.186;2023-03-24T15:36:57;98349.91;;;10.56
45034;BMP280;30771;47.988;-4.186;2023-03-24T15:39:28;98340.59;;;10.75
45034;BMP280;30771;47.988;-4.186;2023-03-24T15:41:54;98336.03;;;10.97
45034;BMP280;30771;47.988;-4.186;2023-03-24T15:44:23;98359.00;;;11.12
45034;BMP280;30771;47.988;-4.186;2023-03-24T15:46:49;98366.38;;;11.15
45034;BMP280;30771;47.988;-4.186;2023-03-24T15:49:24;98378.53;;;11.16
45034;BMP280;30771;47.988;-4.186;2023-03-24T15:52:00;98398.56;;;11.22
45034;BMP280;30771;47.988;-4.186;2023-03-24T15:54:29;98403.66;;;11.34
45034;BMP280;30771;47.988;-4.186;2023-03-24T15:57:02;98438.69;;;11.34
45034;BMP280;30771;47.988;-4.186;2023-03-24T15:59:35;98439.31;;;11.51
45034;BMP280;30771;47.988;-4.186;2023-03-24T16:02:03;98428.09;;;11.76
45034;BMP280;30771;47.988;-4.186;2023-03-24T16:04:29;98438.22;;;11.94
45034;BMP280;30771;47.988;-4.186;2023-03-24T16:06:55;98451.44;;;11.99
45034;BMP280;30771;47.988;-4.186;2023-03-24T16:09:21;98499.38;;;11.96
45034;BMP280;30771;47.988;-4.186;2023-03-24T16:11:47;98557.38;;;11.91
45034;BMP280;30771;47.988;-4.186;2023-03-24T16:16:46;98635.72;;;11.95
45034;BMP280;30771;47.988;-4.186;2023-03-24T16:19:11;98645.78;;;11.98
45034;BMP280;30771;47.988;-4.186;2023-03-24T16:21:37;98663.97;;;12.00
45034;BMP280;30771;47.988;-4.186;2023-03-24T16:24:02;98696.47;;;12.05
45034;BMP280;30771;47.988;-4.186;2023-03-24T16:26:29;98694.38;;;12.07
45034;BMP280;30771;47.988;-4.186;2023-03-24T16:28:59;98710.94;;;12.03
45034;BMP280;30771;47.988;-4.186;2023-03-24T16:31:31;98728.25;;;11.89
45034;BMP280;30771;47.988;-4.186;2023-03-24T16:33:57;98730.25;;;11.77
45034;BMP280;30771;47.988;-4.186;2023-03-24T16:36:23;98729.44;;;11.76
45034;BMP280;30771;47.988;-4.186;2023-03-24T16:38:48;98691.06;;;11.90
45034;BMP280;30771;47.988;-4.186;2023-03-24T16:41:14;98694.06;;;11.99
45034;BMP280;30771;47.988;-4.186;2023-03-24T16:43:40;98707.38;;;12.14
45034;BMP280;30771;47.988;-4.186;2023-03-24T16:46:12;98702.91;;;12.19
45034;BMP280;30771;47.988;-4.186;2023-03-24T16:48:37;98698.69;;;12.18
45034;BMP280;30771;47.988;-4.186;2023-03-24T16:51:03;98701.13;;;12.30
45034;BMP280;30771;47.988;-4.186;2023-03-24T16:53:28;98706.97;;;12.37
45034;BMP280;30771;47.988;-4.186;2023-03-24T16:55:54;98695.38;;;12.38
45034;BMP280;30771;47.988;-4.186;2023-03-24T16:58:19;98706.25;;;12.47
45034;BMP280;30771;47.988;-4.186;2023-03-24T17:00:44;98716.25;;;12.45
45034;BMP280;30771;47.988;-4.186;2023-03-24T17:03:10;98745.34;;;12.50
45034;BMP280;30771;47.988;-4.186;2023-03-24T17:05:44;98749.25;;;12.42
45034;BMP280;30771;47.988;-4.186;2023-03-24T17:08:09;98736.31;;;12.41
45034;BMP280;30771;47.988;-4.186;2023-03-24T17:10:35;98752.41;;;12.44
45034;BMP280;30771;47.988;-4.186;2023-03-24T17:13:00;98759.25;;;12.40
45034;BMP280;30771;47.988;-4.186;2023-03-24T17:15:27;98770.84;;;12.39
45034;BMP280;30771;47.988;-4.186;2023-03-24T17:17:54;98753.66;;;12.37
45034;BMP280;30771;47.988;-4.186;2023-03-24T17:20:21;98750.28;;;12.36
45034;BMP280;30771;47.988;-4.186;2023-03-24T17:22:49;98742.34;;;12.36
45034;BMP280;30771;47.988;-4.186;2023-03-24T17:25:18;98748.97;;;12.44
45034;BMP280;30771;47.988;-4.186;2023-03-24T17:27:44;98737.13;;;12.41
45034;BMP280;30771;47.988;-4.186;2023-03-24T17:30:14;98736.03;;;12.42
45034;BMP280;30771;47.988;-4.186;2023-03-24T17:32:40;98725.72;;;12.36
45034;BMP280;30771;47.988;-4.186;2023-03-24T17:35:09;98705.06;;;12.28
45034;BMP280;30771;47.988;-4.186;2023-03-24T17:37:34;98701.91;;;12.31
45034;BMP280;30771;47.988;-4.186;2023-03-24T17:39:59;98705.06;;;12.28
45034;BMP280;30771;47.988;-4.186;2023-03-24T17:42:25;98701.06;;;12.20
45034;BMP280;30771;47.988;-4.186;2023-03-24T17:44:50;98702.13;;;12.19
45034;BMP280;30771;47.988;-4.186;2023-03-24T17:47:16;98697.31;;;12.11
45034;BMP280;30771;47.988;-4.186;2023-03-24T17:49:42;98698.06;;;12.06
45034;BMP280;30771;47.988;-4.186;2023-03-24T17:52:07;98696.19;;;12.02
45034;BMP280;30771;47.988;-4.186;2023-03-24T17:54:32;98656.59;;;11.97
45034;BMP280;30771;47.988;-4.186;2023-03-24T17:56:58;98672.94;;;11.94
45034;BMP280;30771;47.988;-4.186;2023-03-24T17:59:23;98644.41;;;11.91
45034;BMP280;30771;47.988;-4.186;2023-03-24T18:01:48;98627.56;;;11.92
45034;BMP280;30771;47.988;-4.186;2023-03-24T18:04:14;98610.84;;;11.81
45034;BMP280;30771;47.988;-4.186;2023-03-24T18:06:39;98592.09;;;11.78
45034;BMP280;30771;47.988;-4.186;2023-03-24T18:09:04;98550.59;;;11.63
45034;BMP280;30771;47.988;-4.186;2023-03-24T18:11:30;98524.50;;;11.57
45034;BMP280;30771;47.988;-4.186;2023-03-24T18:13:55;98495.53;;;11.62
45034;BMP280;30771;47.988;-4.186;2023-03-24T18:16:20;98455.44;;;11.55
45034;BMP280;30771;47.988;-4.186;2023-03-24T18:18:46;98443.06;;;11.60
45034;BMP280;30771;47.988;-4.186;2023-03-24T18:21:13;98413.81;;;11.62
45034;BMP280;30771;47.988;-4.186;2023-03-24T18:23:38;98389.81;;;11.58
45034;BMP280;30771;47.988;-4.186;2023-03-24T18:26:05;98389.84;;;11.63
45034;BMP280;30771;47.988;-4.186;2023-03-24T18:28:31;98358.72;;;11.55
45034;BMP280;30771;47.988;-4.186;2023-03-24T18:30:56;98349.53;;;11.58
45034;BMP280;30771;47.988;-4.186;2023-03-24T18:33:22;98338.44;;;11.61
45034;BMP280;30771;47.988;-4.186;2023-03-24T18:35:49;98331.06;;;11.58
45034;BMP280;30771;47.988;-4.186;2023-03-24T18:38:15;98321.56;;;11.57
45034;BMP280;30771;47.988;-4.186;2023-03-24T18:40:40;98322.06;;;11.54
45034;BMP280;30771;47.988;-4.186;2023-03-24T18:43:05;98328.13;;;11.54
45034;BMP280;30771;47.988;-4.186;2023-03-24T18:45:30;98337.66;;;11.55
45034;BMP280;30771;47.988;-4.186;2023-03-24T18:47:56;98370.28;;;11.54
45034;BMP280;30771;47.988;-4.186;2023-03-24T18:50:21;98377.72;;;11.57
45034;BMP280;30771;47.988;-4.186;2023-03-24T18:52:46;98402.72;;;11.55
45034;BMP280;30771;47.988;-4.186;2023-03-24T18:55:12;98427.72;;;11.52
45034;BMP280;30771;47.988;-4.186;2023-03-24T18:57:37;98425.88;;;11.48
45034;BMP280;30771;47.988;-4.186;2023-03-24T19:00:02;98431.94;;;11.48
45034;BMP280;30771;47.988;-4.186;2023-03-24T19:02:28;98430.59;;;11.46
45034;BMP280;30771;47.988;-4.186;2023-03-24T19:04:55;98426.34;;;11.40
45034;BMP280;30771;47.988;-4.186;2023-03-24T19:07:20;98429.25;;;11.38
45034;BMP280;30771;47.988;-4.186;2023-03-24T19:09:45;98442.13;;;11.35
45034;BMP280;30771;47.988;-4.186;2023-03-24T19:12:10;98455.25;;;11.30
45034;BMP280;30771;47.988;-4.186;2023-03-24T19:14:36;98461.53;;;11.24
45034;BMP280;30771;47.988;-4.186;2023-03-24T19:17:01;98474.44;;;11.20
45034;BMP280;30771;47.988;-4.186;2023-03-24T19:19:27;98494.94;;;11.18
45034;BMP280;30771;47.988;-4.186;2023-03-24T19:21:52;98516.47;;;11.10
45034;BMP280;30771;47.988;-4.186;2023-03-24T19:24:17;98543.06;;;11.08
45034;BMP280;30771;47.988;-4.186;2023-03-24T19:26:43;98567.25;;;11.05
45034;BMP280;30771;47.988;-4.186;2023-03-24T19:29:08;98590.38;;;10.98
45034;BMP280;30771;47.988;-4.186;2023-03-24T19:31:33;98619.34;;;10.98
45034;BMP280;30771;47.988;-4.186;2023-03-24T19:33:58;98622.50;;;11.00
45034;BMP280;30771;47.988;-4.186;2023-03-24T19:36:24;98623.50;;;10.99
45034;BMP280;30771;47.988;-4.186;2023-03-24T19:38:49;98609.28;;;10.95
45034;BMP280;30771;47.988;-4.186;2023-03-24T19:41:15;98619.34;;;10.98
45034;BMP280;30771;47.988;-4.186;2023-03-24T19:43:40;98612.97;;;10.99
45034;BMP280;30771;47.988;-4.186;2023-03-24T19:46:06;98601.94;;;10.97
45034;BMP280;30771;47.988;-4.186;2023-03-24T19:48:32;98593.00;;;10.98
45034;BMP280;30771;47.988;-4.186;2023-03-24T19:50:58;98571.28;;;10.86
45034;BMP280;30771;47.988;-4.186;2023-03-24T19:53:23;98560.78;;;10.91
45034;BMP280;30771;47.988;-4.186;2023-03-24T19:55:49;98561.88;;;10.95
45034;BMP280;30771;47.988;-4.186;2023-03-24T19:58:15;98553.56;;;11.03
45034;BMP280;30771;47.988;-4.186;2023-03-24T20:00:40;98523.78;;;11.03
45034;BMP280;30771;47.988;-4.186;2023-03-24T20:03:06;98520.72;;;11.11
45034;BMP280;30771;47.988;-4.186;2023-03-24T20:05:31;98522.78;;;11.09
45034;BMP280;30771;47.988;-4.186;2023-03-24T20:07:56;98519.44;;;11.13
45034;BMP280;30771;47.988;-4.186;2023-03-24T20:10:22;98513.69;;;11.22
45034;BMP280;30771;47.988;-4.186;2023-03-24T20:12:48;98509.47;;;11.21
45034;BMP280;30771;47.988;-4.186;2023-03-24T20:15:13;98500.75;;;11.20
45034;BMP280;30771;47.988;-4.186;2023-03-24T20:17:39;98487.28;;;11.16
45034;BMP280;30771;47.988;-4.186;2023-03-24T20:20:06;98512.28;;;11.14
45034;BMP280;30771;47.988;-4.186;2023-03-24T20:22:33;98575.22;;;11.10
45034;BMP280;30771;47.988;-4.186;2023-03-24T20:24:59;98648.56;;;11.02
45034;BMP280;30771;47.988;-4.186;2023-03-24T20:27:24;98766.44;;;10.95
45034;BMP280;30771;47.988;-4.186;2023-03-24T20:29:49;98861.69;;;10.92
45034;BMP280;30771;47.988;-4.186;2023-03-24T20:32:14;98939.84;;;10.86
45034;BMP280;30771;47.988;-4.186;2023-03-24T20:34:40;98984.16;;;10.78
45034;BMP280;30771;47.988;-4.186;2023-03-24T20:37:05;99018.78;;;10.70
45034;BMP280;30771;47.988;-4.186;2023-03-24T20:39:31;99028.63;;;10.63
45034;BMP280;30771;47.988;-4.186;2023-03-24T20:41:56;99017.00;;;10.59
45034;BMP280;30771;47.988;-4.186;2023-03-24T20:44:22;99017.81;;;10.59
45034;BMP280;30771;47.988;-4.186;2023-03-24T20:46:47;98996.78;;;10.48
45034;BMP280;30771;47.988;-4.186;2023-03-24T20:49:12;98974.47;;;10.50
45034;BMP280;30771;47.988;-4.186;2023-03-24T20:51:37;98959.94;;;10.48
45034;BMP280;30771;47.988;-4.186;2023-03-24T20:54:03;98936.94;;;10.43
45034;BMP280;30771;47.988;-4.186;2023-03-24T20:56:28;98925.16;;;10.46
45034;BMP280;30771;47.988;-4.186;2023-03-24T20:58:53;98900.22;;;10.48
45034;BMP280;30771;47.988;-4.186;2023-03-24T21:01:19;98874.72;;;10.49
45034;BMP280;30771;47.988;-4.186;2023-03-24T21:03:49;98843.69;;;10.51
45034;BMP280;30771;47.988;-4.186;2023-03-24T21:06:15;98815.00;;;10.49
45034;BMP280;30771;47.988;-4.186;2023-03-24T21:08:41;98778.41;;;10.48
45034;BMP280;30771;47.988;-4.186;2023-03-24T21:11:06;98709.09;;;10.59
45034;BMP280;30771;47.988;-4.186;2023-03-24T21:13:32;98681.50;;;10.61
45034;BMP280;30771;47.988;-4.186;2023-03-24T21:15:57;98616.72;;;10.60
45034;BMP280;30771;47.988;-4.186;2023-03-24T21:18:23;98572.88;;;10.66
45034;BMP280;30771;47.988;-4.186;2023-03-24T21:20:52;98528.44;;;10.69
45034;BMP280;30771;47.988;-4.186;2023-03-24T21:23:18;98496.19;;;10.79
45034;BMP280;30771;47.988;-4.186;2023-03-24T21:25:43;98465.94;;;10.81
45034;BMP280;30771;47.988;-4.186;2023-03-24T21:28:09;98452.84;;;10.91
45034;BMP280;30771;47.988;-4.186;2023-03-24T21:30:35;98445.78;;;10.97
45034;BMP280;30771;47.988;-4.186;2023-03-24T21:33:00;98431.88;;;11.01
45034;BMP280;30771;47.988;-4.186;2023-03-24T21:35:26;98444.31;;;11.06
45034;BMP280;30771;47.988;-4.186;2023-03-24T21:37:51;98430.78;;;10.97
45034;BMP280;30771;47.988;-4.186;2023-03-24T21:40:19;98420.09;;;11.09
45034;BMP280;30771;47.988;-4.186;2023-03-24T21:42:44;98418.78;;;11.11
45034;BMP280;30771;47.988;-4.186;2023-03-24T21:45:12;98414.53;;;11.05
45034;BMP280;30771;47.988;-4.186;2023-03-24T21:47:38;98419.00;;;11.05
45034;BMP280;30771;47.988;-4.186;2023-03-24T21:50:04;98429.78;;;11.03
45034;BMP280;30771;47.988;-4.186;2023-03-24T21:52:29;98459.78;;;11.02
45034;BMP280;30771;47.988;-4.186;2023-03-24T21:54:55;98514.06;;;11.03
45034;BMP280;30771;47.988;-4.186;2023-03-24T21:57:20;98549.28;;;10.97
45034;BMP280;30771;47.988;-4.186;2023-03-24T21:59:45;98589.56;;;10.98
45034;BMP280;30771;47.988;-4.186;2023-03-24T22:02:14;98617.72;;;10.97
45034;BMP280;30771;47.988;-4.186;2023-03-24T22:04:39;98628.38;;;10.86
45034;BMP280;30771;47.988;-4.186;2023-03-24T22:07:05;98640.28;;;10.88
45034;BMP280;30771;47.988;-4.186;2023-03-24T22:09:30;98664.22;;;10.87
45034;BMP280;30771;47.988;-4.186;2023-03-24T22:11:55;98675.47;;;10.82
45034;BMP280;30771;47.988;-4.186;2023-03-24T22:14:20;98687.53;;;10.78
45034;BMP280;30771;47.988;-4.186;2023-03-24T22:16:46;98693.44;;;10.69
45034;BMP280;30771;47.988;-4.186;2023-03-24T22:19:11;98721.94;;;10.72
45034;BMP280;30771;47.988;-4.186;2023-03-24T22:21:36;98721.31;;;10.65
45034;BMP280;30771;47.988;-4.186;2023-03-24T22:24:02;98738.91;;;10.64
45034;BMP280;30771;47.988;-4.186;2023-03-24T22:26:27;98757.28;;;10.59
45034;BMP280;30771;47.988;-4.186;2023-03-24T22:28:52;98773.53;;;10.56
45034;BMP280;30771;47.988;-4.186;2023-03-24T22:31:18;98782.63;;;10.49
45034;BMP280;30771;47.988;-4.186;2023-03-24T22:33:43;98784.69;;;10.47
45034;BMP280;30771;47.988;-4.186;2023-03-24T22:36:09;98807.56;;;10.46
45034;BMP280;30771;47.988;-4.186;2023-03-24T22:38:34;98809.00;;;10.37
45034;BMP280;30771;47.988;-4.186;2023-03-24T22:41:05;98813.00;;;10.40
45034;BMP280;30771;47.988;-4.186;2023-03-24T22:43:30;98795.13;;;10.25
45034;BMP280;30771;47.988;-4.186;2023-03-24T22:45:56;98783.31;;;10.28
45034;BMP280;30771;47.988;-4.186;2023-03-24T22:48:22;98752.50;;;10.23
45034;BMP280;30771;47.988;-4.186;2023-03-24T22:50:47;98708.56;;;10.24
45034;BMP280;30771;47.988;-4.186;2023-03-24T22:53:13;98676.44;;;10.22